Time;durP1;ratioP1;P1;durP2;ratioP2;P2;SDS_P1;SDS_P2;PMS_P1;PMS_P2;Temp;Humidity;BMP_temperature;BMP_pressure;BME280_temperature;BME280_humidity;BME280_pressure;Samples;Min_cycle;Max_cycle;Signal;HPM_P1;HPM_P2
2022/07/15 00:00:37;;;;;;;15.07;6.15;;;15.80;90.20;;;;;;5047086;28;20028;-74
2022/07/15 00:03:04;;;;;;;21.35;7.18;;;15.80;90.20;;;;;;5047319;28;20023;-72
2022/07/15 00:05:31;;;;;;;28.25;7.82;;;15.80;90.20;;;;;;5045522;28;20063;-75
2022/07/15 00:08:00;;;;;;;22.25;8.27;;;15.80;90.20;;;;;;5044886;28;20434;-78
2022/07/15 00:10:28;;;;;;;25.85;7.20;;;15.80;90.20;;;;;;5045983;28;20430;-74
2022/07/15 00:12:58;;;;;;;19.52;7.13;;;15.80;90.20;;;;;;5048066;28;20079;-76
2022/07/15 00:15:26;;;;;;;22.55;6.97;;;15.70;90.10;;;;;;5046458;28;20074;-75
2022/07/15 00:17:53;;;;;;;28.95;8.00;;;15.70;90.10;;;;;;5048144;28;20100;-80
2022/07/15 00:20:21;;;;;;;29.30;8.07;;;15.70;90.20;;;;;;5047141;28;20534;-74
2022/07/15 00:22:47;;;;;;;24.77;7.15;;;15.70;90.30;;;;;;5047249;28;20531;-73
2022/07/15 00:25:15;;;;;;;21.75;6.70;;;15.70;90.50;;;;;;5045342;28;20030;-79
2022/07/15 00:27:52;;;;;;;19.85;7.97;;;15.70;90.40;;;;;;5043044;28;20442;-73
2022/07/15 00:30:19;;;;;;;19.63;7.15;;;15.70;90.30;;;;;;5047150;28;20025;-72
2022/07/15 00:32:46;;;;;;;19.55;7.63;;;15.70;90.20;;;;;;5045520;28;20025;-75
2022/07/15 00:35:13;;;;;;;23.17;5.72;;;15.70;90.20;;;;;;5026792;28;20369;-74
2022/07/15 00:37:39;;;;;;;18.77;6.72;;;15.70;90.20;;;;;;5047295;28;20013;-72
2022/07/15 00:40:06;;;;;;;22.10;6.28;;;15.70;90.20;;;;;;5039903;28;20053;-72
2022/07/15 00:42:45;;;;;;;22.95;6.43;;;15.60;90.20;;;;;;5046018;28;20026;-73
2022/07/15 00:45:23;;;;;;;19.08;5.70;;;15.70;90.20;;;;;;5045552;28;20025;-76
2022/07/15 00:47:52;;;;;;;24.02;5.85;;;15.60;90.30;;;;;;5025398;28;20450;-77
2022/07/15 00:50:21;;;;;;;19.98;5.10;;;15.60;90.30;;;;;;5047175;28;20025;-77
2022/07/15 00:53:03;;;;;;;16.08;7.05;;;15.60;90.30;;;;;;5046462;28;20050;-74
2022/07/15 00:55:38;;;;;;;20.17;6.47;;;15.60;90.30;;;;;;5050882;28;20118;-73
2022/07/15 00:58:06;;;;;;;23.03;7.27;;;15.60;90.30;;;;;;5049608;28;21601;-78
2022/07/15 01:00:33;;;;;;;14.00;5.35;;;15.60;90.30;;;;;;5052133;28;20028;-78
2022/07/15 01:03:01;;;;;;;15.88;5.93;;;15.60;90.30;;;;;;5048950;28;20435;-72
2022/07/15 01:05:28;;;;;;;23.30;7.22;;;15.60;90.30;;;;;;5050195;28;20037;-78
2022/07/15 01:07:55;;;;;;;15.98;6.15;;;15.60;90.40;;;;;;5052092;28;20103;-72
2022/07/15 01:10:23;;;;;;;19.75;6.18;;;15.60;90.40;;;;;;5047427;28;20017;-76
2022/07/15 01:12:50;;;;;;;25.63;7.97;;;15.60;90.40;;;;;;5051300;28;20044;-73
2022/07/15 01:15:18;;;;;;;21.08;7.47;;;15.60;90.40;;;;;;5045037;28;20396;-72
2022/07/15 01:17:46;;;;;;;15.00;5.63;;;15.60;90.40;;;;;;5052728;28;20343;-77
2022/07/15 01:20:14;;;;;;;20.33;6.50;;;15.60;90.40;;;;;;5047767;28;20034;-73
2022/07/15 01:22:40;;;;;;;18.65;6.93;;;15.60;90.50;;;;;;5049647;28;20379;-73
2022/07/15 01:25:07;;;;;;;14.98;7.18;;;15.50;90.50;;;;;;5050730;28;20054;-78
2022/07/15 01:27:34;;;;;;;15.80;6.15;;;15.50;90.50;;;;;;5045362;28;20021;-78
2022/07/15 01:30:01;;;;;;;22.23;8.35;;;15.50;90.80;;;;;;5050768;28;20025;-81
2022/07/15 01:32:28;;;;;;;17.83;5.30;;;15.50;90.50;;;;;;5049943;28;20021;-73
2022/07/15 01:34:54;;;;;;;17.50;7.25;;;15.50;90.60;;;;;;5048582;28;20108;-82
2022/07/15 01:37:21;;;;;;;18.65;6.97;;;15.50;90.60;;;;;;5045447;28;20022;-77
2022/07/15 01:39:48;;;;;;;28.08;7.10;;;15.50;90.70;;;;;;5046325;28;20025;-75
2022/07/15 01:42:14;;;;;;;18.02;5.68;;;15.50;90.70;;;;;;5051087;28;20021;-78
2022/07/15 01:44:41;;;;;;;22.33;6.45;;;15.50;90.80;;;;;;5050155;28;20115;-76
2022/07/15 01:47:07;;;;;;;14.35;5.80;;;15.50;90.80;;;;;;5048220;28;20021;-75
2022/07/15 01:49:34;;;;;;;25.80;8.65;;;15.50;90.80;;;;;;5046237;28;20028;-78
2022/07/15 01:52:02;;;;;;;21.42;6.20;;;15.50;90.80;;;;;;5047217;28;20017;-73
2022/07/15 01:54:31;;;;;;;20.67;8.70;;;15.50;90.80;;;;;;5032175;28;20032;-77
2022/07/15 01:56:58;;;;;;;24.33;7.55;;;15.50;90.80;;;;;;5050509;28;20029;-74
2022/07/15 01:59:25;;;;;;;18.20;8.13;;;15.40;90.80;;;;;;5050156;28;20017;-79
2022/07/15 02:01:57;;;;;;;22.92;7.68;;;15.40;90.80;;;;;;5048527;28;20031;-74
2022/07/15 02:04:24;;;;;;;20.40;6.65;;;15.50;90.80;;;;;;5044262;28;20114;-72
2022/07/15 02:06:51;;;;;;;17.17;6.53;;;15.40;90.80;;;;;;5050020;28;20053;-77
2022/07/15 02:09:18;;;;;;;23.02;6.82;;;15.40;90.80;;;;;;5047758;28;20491;-77
2022/07/15 02:11:45;;;;;;;21.75;7.03;;;15.40;90.80;;;;;;5046487;28;20028;-76
2022/07/15 02:14:11;;;;;;;23.85;6.80;;;15.40;90.80;;;;;;5047516;28;20104;-73
2022/07/15 02:16:38;;;;;;;26.20;8.10;;;15.40;90.80;;;;;;5048110;28;20032;-73
2022/07/15 02:19:05;;;;;;;21.58;7.00;;;15.40;90.80;;;;;;5048556;28;20024;-75
2022/07/15 02:21:31;;;;;;;22.27;5.93;;;15.40;90.90;;;;;;5050142;28;20029;-74
2022/07/15 02:23:58;;;;;;;32.58;8.30;;;15.40;91.00;;;;;;5048565;28;20047;-74
2022/07/15 02:26:24;;;;;;;28.70;7.72;;;15.40;91.00;;;;;;5049521;28;20086;-74
2022/07/15 02:28:51;;;;;;;17.80;7.38;;;15.40;91.00;;;;;;5048139;28;20033;-78
2022/07/15 02:31:18;;;;;;;28.90;8.25;;;15.40;91.00;;;;;;5048643;28;20103;-77
2022/07/15 02:33:45;;;;;;;21.70;7.47;;;15.40;91.00;;;;;;5049273;28;20071;-77
2022/07/15 02:36:12;;;;;;;21.33;6.93;;;15.40;91.00;;;;;;5045389;28;20091;-76
2022/07/15 02:38:40;;;;;;;30.08;7.78;;;15.40;91.00;;;;;;5043881;28;20060;-76
2022/07/15 02:41:07;;;;;;;21.73;5.10;;;15.40;91.20;;;;;;5049215;28;20013;-78
2022/07/15 02:43:34;;;;;;;25.00;6.50;;;15.40;91.40;;;;;;5046370;28;20058;-79
2022/07/15 02:46:01;;;;;;;20.65;5.30;;;15.40;91.60;;;;;;5048381;28;20036;-81
2022/07/15 02:48:27;;;;;;;39.10;9.85;;;15.40;91.50;;;;;;5049209;28;20051;-77
2022/07/15 02:50:54;;;;;;;20.73;6.47;;;15.40;91.40;;;;;;5047327;28;20104;-74
2022/07/15 02:53:23;;;;;;;21.23;6.65;;;15.40;91.50;;;;;;5031629;28;20130;-73
2022/07/15 02:55:50;;;;;;;20.23;7.18;;;15.40;91.50;;;;;;5046909;28;20021;-74
2022/07/15 02:58:16;;;;;;;28.02;6.43;;;15.40;91.50;;;;;;5044665;28;20162;-77
2022/07/15 03:00:43;;;;;;;25.15;6.47;;;15.40;91.40;;;;;;5047940;28;20029;-73
2022/07/15 03:03:09;;;;;;;28.83;6.55;;;15.40;91.40;;;;;;5044036;28;20029;-74
2022/07/15 03:05:36;;;;;;;25.10;6.97;;;15.40;91.30;;;;;;5028940;28;20055;-73
2022/07/15 04:16:32;;;;;;;41.35;11.60;;;14.70;92.20;;;;;;5000816;27;20844;-74
2022/07/15 04:18:58;;;;;;;28.45;9.88;;;14.90;92.70;;;;;;5001224;28;20048;-74
2022/07/15 04:21:25;;;;;;;32.83;12.70;;;14.90;92.50;;;;;;5002031;28;20037;-75
2022/07/15 04:23:51;;;;;;;30.90;11.60;;;14.90;92.40;;;;;;5002557;28;20022;-70
2022/07/15 04:26:18;;;;;;;26.15;9.45;;;15.00;92.20;;;;;;5068066;28;20022;-74
2022/07/15 04:28:44;;;;;;;37.03;10.35;;;15.00;92.20;;;;;;5005868;28;20503;-75
2022/07/15 04:31:11;;;;;;;29.88;10.32;;;15.00;92.10;;;;;;5002497;28;20065;-69
2022/07/15 04:33:37;;;;;;;35.88;9.80;;;15.00;92.00;;;;;;5001812;28;20030;-76
2022/07/15 04:36:04;;;;;;;40.42;11.35;;;15.00;91.90;;;;;;5002946;28;20029;-74
2022/07/15 04:38:31;;;;;;;33.65;8.55;;;15.00;91.90;;;;;;5003288;28;20022;-73
2022/07/15 04:40:57;;;;;;;40.08;10.63;;;15.00;92.00;;;;;;5003203;28;20034;-75
2022/07/15 04:43:24;;;;;;;28.10;8.88;;;15.00;92.00;;;;;;5002444;28;20032;-75
2022/07/15 04:45:50;;;;;;;43.38;11.50;;;15.00;92.10;;;;;;5003516;28;20041;-73
2022/07/15 04:51:01;;;;;;;40.35;10.98;;;15.10;92.10;;;;;;5011017;28;20115;-72
2022/07/15 04:53:28;;;;;;;26.85;10.15;;;15.10;92.10;;;;;;5006791;28;20016;-73
2022/07/15 04:55:55;;;;;;;36.67;11.80;;;15.10;92.00;;;;;;5006282;28;20018;-72
2022/07/15 04:58:21;;;;;;;38.35;12.70;;;15.10;92.00;;;;;;5000902;28;20037;-72
2022/07/15 05:00:48;;;;;;;30.13;10.82;;;15.10;92.00;;;;;;5000434;28;20097;-74
2022/07/15 05:03:15;;;;;;;28.45;10.32;;;15.10;92.00;;;;;;4999978;28;20030;-83
2022/07/15 05:05:44;;;;;;;36.25;11.52;;;15.10;92.00;;;;;;5002876;28;20452;-74
2022/07/15 05:08:10;;;;;;;30.23;11.70;;;15.00;92.00;;;;;;5002843;28;20030;-74
2022/07/15 05:10:37;;;;;;;32.33;10.80;;;15.10;92.00;;;;;;5002696;28;20026;-79
2022/07/15 05:13:04;;;;;;;42.58;11.27;;;15.10;92.00;;;;;;5002512;28;20026;-75
2022/07/15 05:15:31;;;;;;;27.77;10.18;;;15.00;92.00;;;;;;5010780;28;20103;-73
2022/07/15 05:17:57;;;;;;;36.65;10.32;;;15.00;92.00;;;;;;4989945;28;20095;-74
2022/07/15 05:20:24;;;;;;;24.67;10.23;;;15.00;91.90;;;;;;4988755;28;20022;-79
2022/07/15 05:22:50;;;;;;;31.35;9.73;;;15.00;92.20;;;;;;4996238;28;20071;-78
2022/07/15 05:25:17;;;;;;;27.85;9.38;;;15.00;91.90;;;;;;4995417;28;20058;-74
2022/07/15 05:27:44;;;;;;;30.98;12.32;;;15.00;91.90;;;;;;4990317;28;20512;-72
2022/07/15 05:30:12;;;;;;;29.73;9.65;;;15.00;91.90;;;;;;4994472;28;20381;-70
2022/07/15 05:32:40;;;;;;;27.63;11.25;;;15.00;92.00;;;;;;4989575;28;20033;-78
2022/07/15 05:35:07;;;;;;;35.83;10.40;;;15.00;91.90;;;;;;4991423;28;20025;-74
2022/07/15 05:37:36;;;;;;;38.17;11.13;;;15.00;92.00;;;;;;4991410;28;20528;-74
2022/07/15 05:40:03;;;;;;;36.22;11.85;;;15.00;92.00;;;;;;4988055;28;20033;-80
2022/07/15 05:42:29;;;;;;;27.25;10.40;;;15.00;92.10;;;;;;4988765;28;20014;-74
2022/07/15 05:44:57;;;;;;;34.53;12.50;;;15.00;92.00;;;;;;4987948;28;20129;-73
2022/07/15 05:47:24;;;;;;;31.63;11.05;;;15.00;92.10;;;;;;4991187;28;20511;-70
2022/07/15 05:49:50;;;;;;;24.10;9.93;;;15.00;92.10;;;;;;4989600;28;20023;-73
2022/07/15 05:52:17;;;;;;;30.83;11.75;;;15.00;92.10;;;;;;4987778;28;20014;-73
2022/07/15 05:54:43;;;;;;;32.75;10.18;;;15.00;92.10;;;;;;4987654;28;20026;-74
2022/07/15 05:57:10;;;;;;;33.05;10.82;;;15.00;92.10;;;;;;4988844;28;20392;-71
2022/07/15 05:59:36;;;;;;;24.10;10.38;;;15.00;92.20;;;;;;4988757;28;20391;-72
2022/07/15 06:02:03;;;;;;;29.13;10.95;;;15.00;92.20;;;;;;4989201;28;20025;-72
2022/07/15 06:04:57;;;;;;;29.80;10.73;;;15.00;92.20;;;;;;4985700;28;20052;-72
2022/07/15 06:07:24;;;;;;;30.60;11.50;;;15.00;92.20;;;;;;5053035;28;20065;-73
2022/07/15 06:09:50;;;;;;;31.70;11.70;;;15.00;92.20;;;;;;4985597;28;20068;-72
2022/07/15 06:12:18;;;;;;;36.95;13.82;;;15.00;92.20;;;;;;4985686;28;20022;-72
2022/07/15 06:14:44;;;;;;;30.13;14.07;;;15.00;92.20;;;;;;4994415;28;20168;-72
2022/07/15 06:17:11;;;;;;;31.02;12.45;;;15.00;92.20;;;;;;4993916;28;20111;-73
2022/07/15 06:19:37;;;;;;;28.02;12.90;;;15.10;92.30;;;;;;4986568;28;20023;-72
2022/07/15 06:22:04;;;;;;;28.08;11.35;;;15.10;92.30;;;;;;4984563;28;20030;-73
2022/07/15 06:24:30;;;;;;;27.30;12.20;;;15.10;92.30;;;;;;5052241;28;20034;-73
2022/07/15 06:26:57;;;;;;;37.03;13.68;;;15.10;92.30;;;;;;4986047;28;20041;-72
2022/07/15 06:29:23;;;;;;;31.83;12.60;;;15.10;92.30;;;;;;4985754;28;20094;-72
2022/07/15 06:31:51;;;;;;;37.33;12.02;;;15.00;92.40;;;;;;4992591;28;20442;-75
2022/07/15 06:34:17;;;;;;;37.25;13.30;;;15.10;92.40;;;;;;4987219;28;20118;-71
2022/07/15 06:36:44;;;;;;;37.55;14.73;;;15.10;92.50;;;;;;4987044;28;20035;-76
2022/07/15 06:39:11;;;;;;;36.97;13.52;;;15.10;92.50;;;;;;4987481;28;20501;-74
2022/07/15 06:41:37;;;;;;;38.65;12.68;;;15.10;92.60;;;;;;4989554;28;20027;-77
2022/07/15 06:44:05;;;;;;;30.52;12.98;;;15.10;92.60;;;;;;4984847;28;20130;-77
2022/07/15 06:46:31;;;;;;;34.60;13.27;;;15.10;92.70;;;;;;4992567;28;20033;-77
2022/07/15 06:48:58;;;;;;;28.42;11.70;;;15.10;92.70;;;;;;4985674;28;20021;-78
2022/07/15 06:51:24;;;;;;;34.90;10.95;;;15.10;92.80;;;;;;4985391;28;20065;-75
2022/07/15 06:53:51;;;;;;;30.83;11.23;;;15.10;92.80;;;;;;4985297;28;20014;-80
2022/07/15 06:56:17;;;;;;;37.95;12.13;;;15.10;92.80;;;;;;4989676;28;20022;-75
2022/07/15 06:58:44;;;;;;;36.67;12.25;;;15.20;92.90;;;;;;4983639;28;20109;-75
2022/07/15 07:01:11;;;;;;;36.83;11.18;;;15.20;93.00;;;;;;4986116;28;20467;-76
2022/07/15 07:03:38;;;;;;;30.77;10.20;;;15.20;93.10;;;;;;4993533;28;20029;-76
2022/07/15 07:06:05;;;;;;;50.00;11.88;;;15.20;93.30;;;;;;4986812;28;20043;-76
2022/07/15 07:08:32;;;;;;;28.25;10.60;;;15.20;93.40;;;;;;4988522;28;20036;-79
2022/07/15 07:10:59;;;;;;;36.88;11.75;;;15.20;93.60;;;;;;4985734;28;20019;-77
2022/07/15 07:13:25;;;;;;;30.15;9.32;;;15.20;93.60;;;;;;4985558;28;20022;-84
2022/07/15 07:15:52;;;;;;;24.58;9.93;;;15.20;93.60;;;;;;4981111;28;20138;-81
2022/07/15 07:18:18;;;;;;;30.23;9.45;;;15.20;93.50;;;;;;4991628;28;20402;-79
2022/07/15 07:20:45;;;;;;;31.42;10.05;;;15.20;93.50;;;;;;4982978;28;20118;-74
2022/07/15 07:23:11;;;;;;;31.48;10.93;;;15.20;93.50;;;;;;4991531;28;20027;-73
2022/07/15 07:25:38;;;;;;;22.67;8.25;;;15.20;93.50;;;;;;4985289;28;20048;-75
2022/07/15 07:28:04;;;;;;;21.40;8.60;;;15.20;93.50;;;;;;4984800;28;20067;-71
2022/07/15 07:30:32;;;;;;;27.98;10.77;;;15.20;93.60;;;;;;4986632;28;20049;-76
2022/07/15 07:33:00;;;;;;;31.38;11.45;;;15.20;93.60;;;;;;4993466;28;20018;-80
2022/07/15 07:35:26;;;;;;;32.20;11.50;;;15.20;93.60;;;;;;4987124;28;20465;-75
2022/07/15 07:37:53;;;;;;;30.70;10.77;;;15.30;93.60;;;;;;4983973;28;20031;-77
2022/07/15 07:40:19;;;;;;;26.90;10.77;;;15.30;93.70;;;;;;4984428;28;20488;-73
2022/07/15 07:42:46;;;;;;;36.92;10.80;;;15.30;93.70;;;;;;4988816;28;20115;-78
2022/07/15 07:45:12;;;;;;;26.30;10.30;;;15.30;93.70;;;;;;4994279;28;20050;-77
2022/07/15 07:47:43;;;;;;;29.38;9.88;;;15.30;93.80;;;;;;4990651;28;20022;-82
2022/07/15 07:50:10;;;;;;;27.15;8.77;;;15.30;93.80;;;;;;4988775;28;20030;-76
2022/07/15 07:52:37;;;;;;;27.40;8.02;;;15.30;93.90;;;;;;4989257;28;20038;-77
2022/07/15 07:55:04;;;;;;;25.40;8.90;;;15.30;93.90;;;;;;4987197;28;20039;-73
2022/07/15 07:57:30;;;;;;;30.13;8.73;;;15.40;93.90;;;;;;4985600;28;20026;-78
2022/07/15 07:59:57;;;;;;;37.03;8.57;;;15.40;94.00;;;;;;4994362;28;20099;-76
2022/07/15 08:02:24;;;;;;;22.90;7.20;;;15.40;94.00;;;;;;4992673;28;20034;-79
2022/07/15 08:04:51;;;;;;;24.38;7.45;;;15.40;94.00;;;;;;4987019;28;20015;-83
2022/07/15 08:07:18;;;;;;;23.92;7.25;;;15.40;94.10;;;;;;4986714;28;20068;-72
2022/07/15 08:09:45;;;;;;;15.48;6.07;;;15.40;94.10;;;;;;4986699;28;20038;-76
2022/07/15 08:12:11;;;;;;;18.48;6.40;;;15.50;94.10;;;;;;4989416;28;20049;-80
2022/07/15 08:14:38;;;;;;;17.10;5.55;;;15.50;94.10;;;;;;4985702;28;20042;-76
2022/07/15 08:17:04;;;;;;;14.30;4.57;;;15.50;94.10;;;;;;4985302;28;20034;-75
2022/07/15 08:19:30;;;;;;;16.30;5.55;;;15.50;94.10;;;;;;5001938;28;20023;-84
2022/07/15 08:21:57;;;;;;;21.58;5.82;;;15.60;94.10;;;;;;4988369;28;20015;-81
2022/07/15 08:24:23;;;;;;;17.83;6.53;;;15.60;94.10;;;;;;4984903;28;20109;-78
2022/07/15 08:26:50;;;;;;;13.73;5.35;;;15.60;94.10;;;;;;5008879;28;20012;-83
2022/07/15 08:29:16;;;;;;;15.93;4.40;;;15.60;94.10;;;;;;4990143;28;20054;-83
2022/07/15 08:31:43;;;;;;;15.93;5.57;;;15.70;94.10;;;;;;4998481;28;20072;-77
2022/07/15 08:34:09;;;;;;;18.90;5.35;;;15.70;94.00;;;;;;4989052;28;20113;-81
2022/07/15 08:36:36;;;;;;;20.45;5.63;;;15.70;94.00;;;;;;4990249;28;20108;-73
2022/07/15 08:39:03;;;;;;;24.55;6.22;;;15.70;94.00;;;;;;4989965;28;20030;-85
2022/07/15 08:41:33;;;;;;;18.75;5.10;;;15.70;93.90;;;;;;4989784;28;20492;-79
2022/07/15 08:43:59;;;;;;;16.38;6.00;;;15.80;93.90;;;;;;4982152;28;20099;-80
2022/07/15 08:46:26;;;;;;;19.05;5.55;;;15.80;93.80;;;;;;4991228;28;20034;-82
2022/07/15 08:48:58;;;;;;;20.23;5.40;;;15.80;93.70;;;;;;4988933;28;20504;-78
2022/07/15 08:51:24;;;;;;;22.95;5.35;;;15.90;93.70;;;;;;4988592;28;20030;-76
2022/07/15 08:53:52;;;;;;;18.27;6.18;;;15.90;93.60;;;;;;4989548;28;20026;-75
2022/07/15 08:56:19;;;;;;;23.45;6.18;;;15.90;93.50;;;;;;4988609;28;20022;-77
2022/07/15 08:58:47;;;;;;;19.33;5.75;;;15.90;93.50;;;;;;4987828;28;20034;-76
2022/07/15 09:01:13;;;;;;;21.20;7.03;;;15.90;93.60;;;;;;4988278;28;20031;-76
2022/07/15 09:03:40;;;;;;;17.45;4.95;;;16.00;93.70;;;;;;4992486;28;20074;-77
2022/07/15 09:06:06;;;;;;;28.58;5.75;;;16.00;93.60;;;;;;4985843;28;20442;-81
2022/07/15 09:08:34;;;;;;;20.92;7.53;;;16.00;93.50;;;;;;4995130;28;20529;-81
2022/07/15 09:11:01;;;;;;;22.33;5.53;;;16.10;93.50;;;;;;4987039;28;20465;-71
2022/07/15 09:13:31;;;;;;;17.10;5.60;;;16.10;93.40;;;;;;4986144;28;20032;-73
2022/07/15 09:16:00;;;;;;;23.17;5.45;;;16.10;93.30;;;;;;4989712;28;20069;-75
2022/07/15 09:18:29;;;;;;;19.05;6.10;;;16.20;93.30;;;;;;4992596;28;20400;-72
2022/07/15 09:20:57;;;;;;;21.52;6.97;;;16.20;93.30;;;;;;4988653;28;20054;-69
2022/07/15 09:23:29;;;;;;;14.65;6.18;;;16.20;93.10;;;;;;4989938;28;20063;-79
2022/07/15 09:26:16;;;;;;;14.55;5.78;;;16.30;93.00;;;;;;4989950;28;20034;-70
2022/07/15 09:28:44;;;;;;;19.38;4.85;;;16.30;92.90;;;;;;4992663;28;20043;-76
2022/07/15 09:34:02;;;;;;;19.70;4.80;;;16.40;92.70;;;;;;5023931;28;20046;-71
2022/07/15 09:36:31;;;;;;;16.33;4.75;;;16.50;92.50;;;;;;4991170;28;20030;-78
2022/07/15 09:39:02;;;;;;;15.25;5.32;;;16.50;92.40;;;;;;4990910;28;20027;-76
2022/07/15 09:41:33;;;;;;;14.43;4.28;;;16.60;92.30;;;;;;4991624;28;20392;-74
2022/07/15 09:44:05;;;;;;;16.52;5.10;;;16.60;92.20;;;;;;4990534;28;20037;-71
2022/07/15 09:46:59;;;;;;;14.60;4.15;;;16.70;92.20;;;;;;4987213;28;20118;-70
2022/07/15 09:49:25;;;;;;;11.45;4.07;;;16.70;92.00;;;;;;4988174;28;20033;-73
2022/07/15 09:51:58;;;;;;;15.00;4.40;;;16.80;91.90;;;;;;4996895;28;21009;-78
2022/07/15 09:54:31;;;;;;;11.70;4.30;;;16.90;91.80;;;;;;4995655;28;20125;-77
2022/07/15 09:57:02;;;;;;;12.32;4.55;;;16.90;91.70;;;;;;4988824;28;20904;-72
2022/07/15 09:59:29;;;;;;;18.45;5.10;;;17.00;91.60;;;;;;4987626;28;20168;-74
2022/07/15 10:01:57;;;;;;;14.65;4.10;;;17.00;91.50;;;;;;4990680;28;20058;-73
2022/07/15 10:04:26;;;;;;;10.27;4.65;;;17.00;91.40;;;;;;4989968;28;20043;-72
2022/07/15 10:06:56;;;;;;;14.07;4.43;;;17.10;91.40;;;;;;4991135;28;20484;-72
2022/07/15 10:09:28;;;;;;;14.95;4.70;;;17.20;91.20;;;;;;4988442;28;20034;-74
2022/07/15 10:11:57;;;;;;;19.05;4.05;;;17.20;91.10;;;;;;4989240;28;20123;-78
2022/07/15 10:14:27;;;;;;;17.13;5.25;;;17.30;91.00;;;;;;4988252;28;20061;-77
2022/07/15 10:16:59;;;;;;;19.90;5.25;;;17.30;90.90;;;;;;4985422;28;20038;-74
2022/07/15 10:19:48;;;;;;;16.52;4.22;;;17.40;90.80;;;;;;4988677;28;20033;-71
2022/07/15 10:22:30;;;;;;;20.13;5.65;;;17.40;90.60;;;;;;4988090;28;20047;-75
2022/07/15 10:25:31;;;;;;;23.10;5.85;;;17.40;90.30;;;;;;4987285;28;20070;-70
2022/07/15 10:28:20;;;;;;;23.67;6.30;;;17.50;90.30;;;;;;4992065;28;20053;-77
2022/07/15 10:31:03;;;;;;;13.52;5.78;;;17.50;90.20;;;;;;4989311;28;20069;-70
2022/07/15 10:33:30;;;;;;;20.73;3.97;;;17.60;90.20;;;;;;4990790;28;20425;-72
2022/07/15 10:36:05;;;;;;;15.65;3.88;;;17.60;89.90;;;;;;5001890;28;20055;-77
2022/07/15 10:38:38;;;;;;;20.92;4.78;;;17.70;89.40;;;;;;4988730;28;20026;-79
2022/07/15 10:41:21;;;;;;;11.55;4.07;;;17.70;88.70;;;;;;4992823;28;20039;-80
2022/07/15 10:43:55;;;;;;;11.38;4.18;;;17.80;88.10;;;;;;4987452;28;20084;-81
2022/07/15 10:46:23;;;;;;;13.50;4.55;;;17.80;87.60;;;;;;4987341;28;20400;-70
2022/07/15 10:48:58;;;;;;;9.65;2.95;;;17.90;87.50;;;;;;4982879;28;20030;-74
2022/07/15 10:51:36;;;;;;;;;;;17.90;86.70;;;;;;4989348;28;20026;-71
2022/07/15 10:54:11;;;;;;;11.15;4.20;;;18.00;86.00;;;;;;4986736;28;20180;-72
2022/07/15 10:56:43;;;;;;;10.32;3.13;;;18.00;85.30;;;;;;4984992;28;20351;-71
2022/07/15 10:59:19;;;;;;;13.82;2.92;;;18.00;85.80;;;;;;4989046;28;20030;-73
2022/07/15 11:02:09;;;;;;;10.13;3.45;;;18.10;84.90;;;;;;4988152;28;20038;-73
2022/07/15 11:04:36;;;;;;;16.02;3.38;;;18.10;84.50;;;;;;4987696;28;20077;-73
2022/07/15 11:07:03;;;;;;;21.27;4.30;;;18.20;84.20;;;;;;4987149;28;20027;-70
2022/07/15 11:09:53;;;;;;;13.40;3.50;;;18.20;83.90;;;;;;4983821;28;20176;-72
2022/07/15 11:12:24;;;;;;;14.48;4.95;;;18.30;83.80;;;;;;4993425;28;20468;-72
2022/07/15 11:14:58;;;;;;;14.13;3.58;;;18.30;83.40;;;;;;4983171;28;20100;-74
2022/07/15 11:17:42;;;;;;;8.75;3.70;;;18.40;83.10;;;;;;4987465;28;20122;-70
2022/07/15 11:20:13;;;;;;;10.30;3.40;;;18.40;82.50;;;;;;4985542;28;20451;-72
2022/07/15 11:22:47;;;;;;;5.78;3.30;;;18.50;81.80;;;;;;4986916;28;20037;-75
2022/07/15 11:25:31;;;;;;;11.32;3.55;;;18.50;81.00;;;;;;4989239;28;20045;-71
2022/07/15 11:28:03;;;;;;;10.35;3.05;;;18.60;80.50;;;;;;4988181;28;20030;-71
2022/07/15 11:30:49;;;;;;;9.32;2.95;;;18.60;79.80;;;;;;4984630;28;20033;-75
2022/07/15 11:33:17;;;;;;;8.85;2.70;;;18.60;79.40;;;;;;4988724;28;20042;-71
2022/07/15 11:35:46;;;;;;;8.57;2.53;;;18.70;78.90;;;;;;4985407;28;20034;-73
2022/07/15 11:38:13;;;;;;;9.57;2.45;;;18.80;78.00;;;;;;4988774;28;20106;-70
2022/07/15 11:46:21;;;;;;;11.65;2.83;;;18.90;78.20;;;;;;4989272;28;20067;-73
2022/07/15 11:48:48;;;;;;;9.27;2.90;;;19.00;78.20;;;;;;5011561;28;20077;-75
2022/07/15 11:51:14;;;;;;;15.18;3.25;;;19.10;78.10;;;;;;4992178;28;20071;-75
2022/07/15 11:53:47;;;;;;;12.07;3.28;;;19.10;78.00;;;;;;4986144;28;20034;-74
2022/07/15 11:56:15;;;;;;;15.32;3.80;;;19.20;77.70;;;;;;4984763;28;20548;-77
2022/07/15 11:58:49;;;;;;;14.90;4.03;;;19.30;77.40;;;;;;4989777;28;20058;-70
2022/07/15 12:01:20;;;;;;;13.52;4.38;;;19.30;76.90;;;;;;4990795;28;20018;-70
2022/07/15 12:03:52;;;;;;;20.20;6.63;;;19.40;77.70;;;;;;4988095;28;20026;-71
2022/07/15 12:06:27;;;;;;;14.43;5.75;;;19.40;79.00;;;;;;4985636;28;20373;-72
2022/07/15 12:08:56;;;;;;;17.00;6.20;;;19.40;79.00;;;;;;4987714;28;20076;-72
2022/07/15 12:11:27;;;;;;;23.38;5.43;;;19.50;79.50;;;;;;4988554;28;20477;-71
2022/07/15 12:13:57;;;;;;;13.50;5.07;;;19.50;79.50;;;;;;4985476;28;20057;-74
2022/07/15 12:16:29;;;;;;;16.05;5.97;;;19.60;79.80;;;;;;4984396;28;20046;-79
2022/07/15 12:18:59;;;;;;;25.60;6.53;;;19.60;79.90;;;;;;4985522;28;20596;-73
2022/07/15 12:21:26;;;;;;;15.50;5.85;;;19.50;79.90;;;;;;4991260;28;20022;-73
2022/07/15 12:24:08;;;;;;;19.65;5.40;;;19.60;79.40;;;;;;4980311;28;20482;-76
2022/07/15 12:26:58;;;;;;;14.82;4.85;;;19.60;79.30;;;;;;4988225;28;20443;-77
2022/07/15 12:29:31;;;;;;;17.83;5.40;;;19.60;79.40;;;;;;4996003;28;20034;-71
2022/07/15 12:32:06;;;;;;;20.38;5.72;;;19.60;79.50;;;;;;4985713;28;20034;-76
2022/07/15 12:34:47;;;;;;;21.02;7.32;;;19.60;79.30;;;;;;4991048;28;20054;-74
2022/07/15 12:37:20;;;;;;;24.40;5.72;;;19.70;79.50;;;;;;4991535;28;20042;-74
2022/07/15 12:40:07;;;;;;;22.92;7.10;;;19.70;79.20;;;;;;4985298;28;20475;-70
2022/07/15 12:42:44;;;;;;;15.07;5.43;;;19.70;79.00;;;;;;4988471;28;20041;-71
2022/07/15 12:45:12;;;;;;;18.77;6.53;;;19.70;78.70;;;;;;4993849;28;20038;-74
2022/07/15 12:48:13;;;;;;;14.45;4.88;;;19.70;78.50;;;;;;4987478;28;20390;-75
2022/07/15 12:50:49;;;;;;;13.32;5.55;;;19.70;78.00;;;;;;4988889;28;20042;-72
2022/07/15 12:53:17;;;;;;;12.30;4.82;;;19.70;77.80;;;;;;4989690;28;20108;-75
2022/07/15 12:55:49;;;;;;;21.75;5.65;;;19.70;77.70;;;;;;4985490;28;20489;-80
2022/07/15 12:58:18;;;;;;;17.80;5.22;;;19.80;77.70;;;;;;4991948;28;20038;-80
2022/07/15 13:00:45;;;;;;;12.52;4.93;;;19.80;77.40;;;;;;4985407;28;20121;-69
2022/07/15 13:03:23;;;;;;;18.48;5.93;;;19.80;77.30;;;;;;4992403;28;20490;-70
2022/07/15 13:05:51;;;;;;;17.30;5.47;;;19.80;77.20;;;;;;4982876;28;20169;-78
2022/07/15 13:08:21;;;;;;;17.27;5.53;;;19.80;77.00;;;;;;4991139;28;20061;-75
2022/07/15 13:10:49;;;;;;;15.13;4.88;;;19.90;77.10;;;;;;4988883;28;20477;-78
2022/07/15 13:13:19;;;;;;;18.33;5.50;;;19.90;77.00;;;;;;4990749;28;20029;-77
2022/07/15 13:15:47;;;;;;;55.88;8.40;;;19.90;77.30;;;;;;4987331;28;20057;-77
2022/07/15 13:18:15;;;;;;;23.10;6.07;;;19.90;76.60;;;;;;4989223;28;20035;-74
2022/07/15 13:20:42;;;;;;;24.92;5.65;;;19.90;76.70;;;;;;4987370;28;20022;-79
2022/07/15 13:23:09;;;;;;;22.98;6.13;;;19.90;76.50;;;;;;4989426;28;20034;-77
2022/07/15 13:25:36;;;;;;;16.92;6.13;;;19.90;76.50;;;;;;4988907;28;20519;-76
2022/07/15 13:28:04;;;;;;;18.85;6.13;;;19.90;76.40;;;;;;4987243;28;20037;-74
2022/07/15 13:30:31;;;;;;;23.02;7.38;;;19.90;76.50;;;;;;4987918;28;20034;-79
2022/07/15 13:32:58;;;;;;;19.60;5.68;;;19.80;76.40;;;;;;4988117;28;20422;-75
2022/07/15 13:35:25;;;;;;;17.98;5.05;;;19.80;76.50;;;;;;4986321;28;20637;-79
2022/07/15 13:37:52;;;;;;;18.30;5.55;;;19.90;76.70;;;;;;4985068;28;20029;-76
2022/07/15 13:40:19;;;;;;;21.70;5.93;;;19.90;76.70;;;;;;4988499;28;20026;-80
2022/07/15 13:42:46;;;;;;;18.75;5.45;;;19.90;76.70;;;;;;4989664;28;20492;-73
2022/07/15 13:45:14;;;;;;;15.77;5.53;;;19.90;76.60;;;;;;4985544;28;20495;-70
2022/07/15 13:47:41;;;;;;;20.77;6.30;;;19.90;76.30;;;;;;4987390;28;20031;-76
2022/07/15 13:52:55;;;;;;;18.00;5.28;;;19.80;76.10;;;;;;4990057;28;20073;-77
2022/07/15 13:55:22;;;;;;;14.80;5.95;;;19.80;76.30;;;;;;4987362;28;20514;-80
2022/07/15 13:57:49;;;;;;;44.47;8.70;;;19.80;76.40;;;;;;4997515;28;20101;-79
2022/07/15 14:00:18;;;;;;;21.05;6.93;;;19.70;76.40;;;;;;4988727;28;20026;-78
2022/07/15 14:02:45;;;;;;;17.27;6.32;;;19.70;76.60;;;;;;4986295;28;20489;-78
2022/07/15 14:05:13;;;;;;;34.05;7.90;;;19.70;76.80;;;;;;4987839;28;20034;-80
2022/07/15 14:07:44;;;;;;;20.70;5.78;;;19.70;76.90;;;;;;4995560;28;20475;-70